Time;durP1;ratioP1;P1;durP2;ratioP2;P2;SDS_P1;SDS_P2;PMS_P1;PMS_P2;Temp;Humidity;BMP_temperature;BMP_pressure;BME280_temperature;BME280_humidity;BME280_pressure;Samples;Min_cycle;Max_cycle;Signal;HPM_P1;HPM_P2
2023/08/08 00:00:20;;;;;;;;;;;;;;;20.09;64.81;96079.97;6152248;28;20451;-70
2023/08/08 00:03:23;;;;;;;;;;;;;;;20.14;63.94;96080.25;6152176;28;19927;-72
2023/08/08 00:06:27;;;;;;;;;;;;;;;20.13;64.03;96073.28;6151897;28;20024;-71
2023/08/08 00:09:32;;;;;;;;;;;;;;;20.03;64.44;96076.16;6151359;28;20026;-71
2023/08/08 00:12:35;;;;;;;;;;;;;;;19.96;64.51;96069.88;6152021;28;19926;-71
2023/08/08 00:15:38;;;;;;;;;;;;;;;19.92;64.50;96069.38;6151816;28;20548;-71
2023/08/08 00:18:39;;;;;;;;;;;;;;;19.88;64.48;96073.44;6151812;28;19933;-71
2023/08/08 00:21:43;;;;;;;;;;;;;;;19.85;64.85;96071.13;6150397;28;19934;-71
2023/08/08 00:24:47;;;;;;;;;;;;;;;19.82;65.18;96066.13;6151243;28;19985;-71
2023/08/08 00:27:53;;;;;;;;;;;;;;;19.82;65.04;96067.97;6151545;28;19926;-72
2023/08/08 00:30:54;;;;;;;;;;;;;;;19.81;65.21;96068.97;6151404;28;20527;-70
2023/08/08 00:33:55;;;;;;;;;;;;;;;19.79;64.80;96073.63;6150944;28;19930;-71
2023/08/08 00:36:57;;;;;;;;;;;;;;;19.80;64.92;96070.81;6150762;28;19930;-73
2023/08/08 00:40:03;;;;;;;;;;;;;;;19.78;65.65;96066.66;6151427;28;19927;-71
2023/08/08 00:43:04;;;;;;;;;;;;;;;19.77;65.75;96073.00;6150669;28;19970;-72
2023/08/08 00:46:05;;;;;;;;;;;;;;;19.81;65.52;96075.13;6150680;28;20385;-71
2023/08/08 00:49:09;;;;;;;;;;;;;;;19.86;65.99;96069.28;6149488;28;20033;-70
2023/08/08 00:52:14;;;;;;;;;;;;;;;19.95;66.02;96068.19;6150184;28;20397;-71
2023/08/08 00:55:18;;;;;;;;;;;;;;;20.08;65.44;96064.94;6151085;28;20401;-72
2023/08/08 00:58:23;;;;;;;;;;;;;;;20.15;64.62;96068.56;6150670;29;19948;-71
2023/08/08 01:01:27;;;;;;;;;;;;;;;20.18;64.99;96058.38;6150863;28;19926;-71
2023/08/08 01:04:28;;;;;;;;;;;;;;;20.22;65.31;96052.66;6150325;28;19933;-71
2023/08/08 01:07:52;;;;;;;;;;;;;;;20.26;65.04;96060.13;6150228;28;19926;-70
2023/08/08 01:10:53;;;;;;;;;;;;;;;20.29;64.77;96056.25;6150610;28;20009;-72
2023/08/08 01:13:54;;;;;;;;;;;;;;;20.29;64.94;96042.91;6150110;28;20385;-71
2023/08/08 01:17:01;;;;;;;;;;;;;;;20.32;65.10;96050.56;6150527;28;19926;-71
2023/08/08 01:20:07;;;;;;;;;;;;;;;20.38;64.97;96047.16;6150029;28;19926;-72
2023/08/08 01:23:14;;;;;;;;;;;;;;;20.44;64.54;96041.13;6150451;28;20321;-71
2023/08/08 01:26:16;;;;;;;;;;;;;;;20.50;65.35;96042.22;6150263;28;20009;-73
2023/08/08 01:29:19;;;;;;;;;;;;;;;20.59;65.06;96039.31;6150221;28;19934;-72
2023/08/08 01:32:23;;;;;;;;;;;;;;;20.67;64.66;96035.75;6149813;28;19926;-72
2023/08/08 01:35:30;;;;;;;;;;;;;;;20.75;64.56;96042.81;6148973;28;19930;-72
2023/08/08 01:38:34;;;;;;;;;;;;;;;20.81;64.24;96036.78;6149723;28;20411;-71
2023/08/08 01:41:37;;;;;;;;;;;;;;;20.87;63.96;96040.56;6149406;28;19926;-73
2023/08/08 01:44:40;;;;;;;;;;;;;;;20.91;64.09;96037.31;6149796;28;19926;-72
2023/08/08 01:47:49;;;;;;;;;;;;;;;20.95;64.03;96043.97;6150167;28;19926;-72
2023/08/08 01:50:50;;;;;;;;;;;;;;;21.06;63.87;96040.81;6149777;28;20415;-71
2023/08/08 01:53:56;;;;;;;;;;;;;;;21.14;63.72;96047.91;6149210;28;20413;-71
2023/08/08 01:56:57;;;;;;;;;;;;;;;21.21;63.41;96037.31;6149067;28;19926;-71
2023/08/08 02:00:04;;;;;;;;;;;;;;;21.29;63.17;96034.53;6149615;28;20311;-72
2023/08/08 02:03:05;;;;;;;;;;;;;;;21.38;62.91;96036.13;6149088;28;19926;-72
2023/08/08 02:06:06;;;;;;;;;;;;;;;21.50;62.91;96037.28;6149248;28;20025;-72
2023/08/08 02:09:14;;;;;;;;;;;;;;;21.59;62.77;96034.50;6149360;28;19926;-71
2023/08/08 02:12:15;;;;;;;;;;;;;;;21.65;62.45;96020.34;6149040;28;20069;-71
2023/08/08 02:15:16;;;;;;;;;;;;;;;21.67;62.50;96021.00;6148937;28;20046;-72
2023/08/08 02:18:19;;;;;;;;;;;;;;;21.70;62.50;96020.63;6148180;28;19926;-72
2023/08/08 02:21:24;;;;;;;;;;;;;;;21.84;62.16;96025.09;6149150;28;19926;-71
2023/08/08 02:24:28;;;;;;;;;;;;;;;22.03;61.95;96020.97;6148831;28;19937;-72
2023/08/08 02:27:29;;;;;;;;;;;;;;;22.17;61.27;96027.28;6148957;28;19926;-72
2023/08/08 02:30:33;;;;;;;;;;;;;;;22.25;61.04;96021.81;6148980;28;19926;-71
2023/08/08 02:33:38;;;;;;;;;;;;;;;22.38;61.19;96024.56;6148831;28;19927;-71
2023/08/08 02:36:40;;;;;;;;;;;;;;;22.61;60.67;96023.50;6148648;28;20029;-72
2023/08/08 02:39:44;;;;;;;;;;;;;;;22.74;60.53;96015.56;6148845;28;20468;-72
2023/08/08 02:42:45;;;;;;;;;;;;;;;22.85;60.19;96017.69;6148532;28;20298;-72
2023/08/08 02:45:46;;;;;;;;;;;;;;;22.92;59.71;96014.22;6146199;28;19981;-71
2023/08/08 02:48:47;;;;;;;;;;;;;;;22.86;60.12;96011.31;6147229;28;19933;-72
2023/08/08 02:51:48;;;;;;;;;;;;;;;22.83;60.25;96003.66;6148141;28;19926;-72
2023/08/08 02:54:49;;;;;;;;;;;;;;;22.85;60.10;96004.28;6148184;28;19927;-73
2023/08/08 02:57:55;;;;;;;;;;;;;;;22.85;60.33;96008.84;6148110;28;19927;-72
2023/08/08 03:00:59;;;;;;;;;;;;;;;22.83;60.06;96010.88;6148173;28;19930;-71
2023/08/08 03:04:03;;;;;;;;;;;;;;;22.81;60.29;96013.75;6148151;28;19927;-72
2023/08/08 03:07:05;;;;;;;;;;;;;;;22.55;60.90;96013.56;6147386;28;19934;-72
2023/08/08 03:10:07;;;;;;;;;;;;;;;22.24;61.93;96017.44;6148040;28;19941;-73
2023/08/08 03:13:12;;;;;;;;;;;;;;;22.06;62.83;96019.75;6147888;28;19926;-71
2023/08/08 03:16:18;;;;;;;;;;;;;;;21.90;63.25;96010.09;6148417;28;19922;-73
2023/08/08 03:19:22;;;;;;;;;;;;;;;21.68;64.41;96011.94;6148338;28;19926;-72
2023/08/08 03:22:23;;;;;;;;;;;;;;;21.65;64.92;96006.97;6147677;28;20133;-71
2023/08/08 03:25:26;;;;;;;;;;;;;;;21.68;65.02;96006.56;6148177;28;19926;-72
2023/08/08 03:28:27;;;;;;;;;;;;;;;21.74;65.08;96005.84;6147493;28;19933;-72
2023/08/08 03:31:28;;;;;;;;;;;;;;;21.84;64.16;96011.69;6147615;28;19926;-72
2023/08/08 03:34:34;;;;;;;;;;;;;;;21.97;63.76;96006.47;6147807;28;20393;-72
2023/08/08 03:37:39;;;;;;;;;;;;;;;22.20;63.51;96002.78;6146741;28;19927;-72
2023/08/08 03:40:40;;;;;;;;;;;;;;;22.47;62.74;96008.34;6146306;28;20060;-71
2023/08/08 03:43:44;;;;;;;;;;;;;;;22.76;62.28;96000.13;6147696;28;19926;-71
2023/08/08 03:46:47;;;;;;;;;;;;;;;23.03;61.85;95994.91;6147080;28;19938;-72
2023/08/08 03:49:50;;;;;;;;;;;;;;;23.27;61.23;95988.22;6147295;28;19922;-72
2023/08/08 03:52:52;;;;;;;;;;;;;;;23.50;60.13;95986.03;6147179;28;19926;-72
2023/08/08 03:55:56;;;;;;;;;;;;;;;23.56;60.00;95984.41;6147644;28;20400;-72
2023/08/08 03:58:59;;;;;;;;;;;;;;;23.57;60.10;95980.66;6151451;28;19929;-71
2023/08/08 04:02:05;;;;;;;;;;;;;;;23.71;59.85;95985.06;6152371;28;19926;-72
2023/08/08 04:05:12;;;;;;;;;;;;;;;23.97;59.92;95976.22;6151604;28;19933;-72
2023/08/08 04:08:17;;;;;;;;;;;;;;;24.42;58.96;95986.38;6151380;28;20436;-72
2023/08/08 04:11:21;;;;;;;;;;;;;;;24.80;57.93;95997.31;6151579;28;19957;-72
2023/08/08 04:14:22;;;;;;;;;;;;;;;24.98;57.82;95993.97;6151415;28;19926;-73
2023/08/08 04:17:25;;;;;;;;;;;;;;;25.16;57.36;95987.09;6152135;28;19926;-72
2023/08/08 04:20:30;;;;;;;;;;;;;;;25.48;57.13;95983.47;6151814;28;19942;-72
2023/08/08 04:23:34;;;;;;;;;;;;;;;25.89;56.42;95984.09;6151668;28;19926;-71
2023/08/08 04:26:37;;;;;;;;;;;;;;;26.21;55.34;95971.41;6151294;28;20029;-72
2023/08/08 04:29:39;;;;;;;;;;;;;;;26.40;55.17;95975.81;6151055;28;19926;-72
2023/08/08 04:32:40;;;;;;;;;;;;;;;26.40;55.07;95975.81;6151387;29;20311;-73
2023/08/08 04:35:43;;;;;;;;;;;;;;;26.15;55.71;95970.41;6151390;28;19949;-72
2023/08/08 04:38:48;;;;;;;;;;;;;;;26.07;55.22;95968.00;6151560;28;20233;-72
2023/08/08 04:41:49;;;;;;;;;;;;;;;25.86;55.75;95974.56;6151249;28;19949;-73
2023/08/08 04:44:53;;;;;;;;;;;;;;;25.67;55.86;95973.59;6151125;28;20348;-72
2023/08/08 04:47:58;;;;;;;;;;;;;;;25.65;55.86;95969.50;6151226;28;19931;-73
2023/08/08 04:51:01;;;;;;;;;;;;;;;26.02;55.53;95964.31;6150559;28;19929;-72
2023/08/08 04:54:05;;;;;;;;;;;;;;;28.85;51.06;95978.25;6150839;28;20444;-73
2023/08/08 04:57:06;;;;;;;;;;;;;;;32.89;43.36;95973.38;6150761;28;20004;-72
2023/08/08 05:00:08;;;;;;;;;;;;;;;36.69;38.78;95978.31;6150260;28;20359;-74
2023/08/08 05:03:09;;;;;;;;;;;;;;;39.67;34.02;95967.41;6150484;28;19942;-72
2023/08/08 05:06:15;;;;;;;;;;;;;;;40.46;29.73;95977.25;6150658;28;20365;-72
2023/08/08 05:09:17;;;;;;;;;;;;;;;40.94;31.47;95971.91;6149915;28;20320;-72
2023/08/08 05:12:20;;;;;;;;;;;;;;;41.81;28.06;95972.25;6150615;28;20234;-72
2023/08/08 05:15:24;;;;;;;;;;;;;;;43.06;27.82;95960.56;6150461;28;20432;-72
2023/08/08 05:18:29;;;;;;;;;;;;;;;45.03;25.88;95966.22;6150488;28;19930;-72
2023/08/08 05:21:35;;;;;;;;;;;;;;;46.78;24.72;95968.16;6150299;28;19927;-73
2023/08/08 05:24:39;;;;;;;;;;;;;;;46.14;23.45;95955.94;6150194;28;19978;-72
2023/08/08 05:27:46;;;;;;;;;;;;;;;47.94;19.62;95949.63;6150046;28;19926;-72
2023/08/08 05:30:50;;;;;;;;;;;;;;;48.20;21.71;95957.38;6150153;28;19922;-72
2023/08/08 05:33:54;;;;;;;;;;;;;;;48.90;22.30;95951.66;6150081;29;19930;-72
2023/08/08 05:37:03;;;;;;;;;;;;;;;50.02;16.46;95954.31;6150019;28;19922;-72
2023/08/08 05:40:06;;;;;;;;;;;;;;;50.09;20.20;95957.22;6149620;28;20594;-72
2023/08/08 05:43:10;;;;;;;;;;;;;;;51.74;17.98;95945.03;6149928;28;19933;-73
2023/08/08 05:46:14;;;;;;;;;;;;;;;53.28;15.90;95946.47;6149874;28;19933;-72
2023/08/08 05:49:19;;;;;;;;;;;;;;;54.47;18.22;95952.75;6150398;28;20081;-72
2023/08/08 05:52:23;;;;;;;;;;;;;;;53.92;16.69;95933.59;6149185;28;20013;-73
2023/08/08 05:55:24;;;;;;;;;;;;;;;50.44;18.63;95922.50;6149204;28;20024;-73
2023/08/08 05:58:28;;;;;;;;;;;;;;;50.64;15.78;95912.75;6149422;28;20020;-73
2023/08/08 06:01:34;;;;;;;;;;;;;;;49.70;18.50;95904.31;6149303;28;20033;-71
2023/08/08 06:04:36;;;;;;;;;;;;;;;49.21;17.21;95896.72;6149302;28;19981;-72
2023/08/08 06:07:38;;;;;;;;;;;;;;;47.58;18.95;95893.81;6149028;28;20077;-73
2023/08/08 06:10:42;;;;;;;;;;;;;;;45.20;19.39;95886.69;6149017;28;20447;-74
2023/08/08 06:13:45;;;;;;;;;;;;;;;45.99;19.44;95880.81;6148977;28;19926;-73
2023/08/08 06:16:51;;;;;;;;;;;;;;;46.79;17.38;95874.34;6148822;28;19926;-72
2023/08/08 06:19:56;;;;;;;;;;;;;;;46.66;17.81;95873.63;6148072;28;19927;-73
2023/08/08 06:23:01;;;;;;;;;;;;;;;43.94;19.60;95864.78;6148957;28;19926;-72
2023/08/08 06:26:05;;;;;;;;;;;;;;;39.99;23.73;95859.00;6148449;28;20320;-73
2023/08/08 06:29:08;;;;;;;;;;;;;;;33.95;33.10;95857.63;6147997;28;20312;-72
2023/08/08 06:32:09;;;;;;;;;;;;;;;29.93;39.45;95843.81;6148743;28;19927;-72
2023/08/08 06:35:16;;;;;;;;;;;;;;;27.95;43.37;95846.81;6148690;28;19926;-72
2023/08/08 06:38:21;;;;;;;;;;;;;;;26.98;45.05;95841.56;6148259;28;19993;-74
2023/08/08 06:41:25;;;;;;;;;;;;;;;26.06;46.07;95844.22;6147448;28;19986;-71
2023/08/08 06:44:28;;;;;;;;;;;;;;;25.71;46.09;95850.09;6148174;28;19934;-71
2023/08/08 06:47:31;;;;;;;;;;;;;;;25.81;48.48;95858.47;6148208;28;19926;-71
2023/08/08 06:50:35;;;;;;;;;;;;;;;26.13;47.50;95847.69;6148505;28;20436;-73
2023/08/08 06:53:37;;;;;;;;;;;;;;;26.82;44.71;95851.09;6146301;28;19933;-73
2023/08/08 06:56:38;;;;;;;;;;;;;;;27.66;43.49;95853.91;6147883;28;20025;-74
2023/08/08 06:59:42;;;;;;;;;;;;;;;28.70;41.65;95847.97;6148121;28;19926;-73
2023/08/08 07:02:43;;;;;;;;;;;;;;;30.17;39.49;95846.34;6148300;28;20398;-73
2023/08/08 07:05:46;;;;;;;;;;;;;;;31.81;36.93;95851.09;6148168;28;19926;-74
2023/08/08 07:08:49;;;;;;;;;;;;;;;35.09;34.11;95851.72;6146287;28;19937;-73
2023/08/08 07:11:50;;;;;;;;;;;;;;;40.09;27.43;95864.28;6147933;28;20342;-74
2023/08/08 07:14:51;;;;;;;;;;;;;;;44.58;23.51;95874.63;6147770;28;20075;-73
2023/08/08 07:17:54;;;;;;;;;;;;;;;44.96;23.56;95868.84;6147555;28;20081;-73
2023/08/08 07:21:00;;;;;;;;;;;;;;;43.70;25.34;95862.66;6148273;28;19926;-73
2023/08/08 07:24:03;;;;;;;;;;;;;;;45.72;22.30;95871.25;6147046;28;19926;-74
2023/08/08 07:27:10;;;;;;;;;;;;;;;49.80;19.19;95870.13;6148041;28;19927;-73
2023/08/08 07:30:13;;;;;;;;;;;;;;;52.76;15.72;95864.50;6148130;28;19922;-73
2023/08/08 07:33:17;;;;;;;;;;;;;;;52.78;17.51;95861.31;6152492;28;19927;-73
2023/08/08 07:36:21;;;;;;;;;;;;;;;53.72;15.53;95863.72;6152352;28;19927;-73
2023/08/08 07:39:25;;;;;;;;;;;;;;;51.36;18.97;95872.25;6152477;28;19926;-73
2023/08/08 07:42:29;;;;;;;;;;;;;;;47.31;16.21;95851.00;6152495;28;19926;-73
2023/08/08 07:45:32;;;;;;;;;;;;;;;40.94;21.28;95839.47;6151434;28;19927;-73
2023/08/08 07:48:38;;;;;;;;;;;;;;;36.74;25.21;95823.94;6152652;28;20021;-72
2023/08/08 07:51:42;;;;;;;;;;;;;;;34.60;28.05;95824.28;6151913;28;19926;-74
2023/08/08 07:54:46;;;;;;;;;;;;;;;37.80;24.69;95834.63;6152290;28;19933;-74
2023/08/08 07:57:50;;;;;;;;;;;;;;;42.61;20.44;95847.56;6152278;28;19926;-73
2023/08/08 08:00:53;;;;;;;;;;;;;;;47.01;17.35;95875.69;6151737;28;19926;-73
2023/08/08 08:03:57;;;;;;;;;;;;;;;47.22;16.75;95881.81;6152335;28;19926;-73
2023/08/08 08:06:58;;;;;;;;;;;;;;;44.02;17.80;95874.97;6151696;28;19977;-72
2023/08/08 08:10:04;;;;;;;;;;;;;;;39.86;19.55;95873.63;6151963;28;19930;-73
2023/08/08 08:13:08;;;;;;;;;;;;;;;36.27;22.01;95866.59;6151607;28;20025;-72
2023/08/08 08:16:11;;;;;;;;;;;;;;;35.07;22.75;95869.50;6152109;28;19926;-74
2023/08/08 08:19:13;;;;;;;;;;;;;;;33.18;24.48;95872.16;6151475;28;19927;-74
2023/08/08 08:22:16;;;;;;;;;;;;;;;32.66;25.71;95879.25;6151699;28;19926;-74
2023/08/08 08:25:19;;;;;;;;;;;;;;;33.36;25.16;95896.22;6151200;28;19937;-74
2023/08/08 08:28:23;;;;;;;;;;;;;;;33.64;24.63;95914.06;6151355;28;19926;-76
2023/08/08 08:31:26;;;;;;;;;;;;;;;32.27;25.33;95909.44;6151453;28;19922;-73
2023/08/08 08:34:31;;;;;;;;;;;;;;;30.46;27.32;95908.66;6151166;28;20344;-73
2023/08/08 08:37:35;;;;;;;;;;;;;;;29.26;28.54;95923.06;6151607;28;19926;-73
2023/08/08 08:40:41;;;;;;;;;;;;;;;28.31;29.81;95904.44;6151316;28;20483;-73
2023/08/08 08:43:44;;;;;;;;;;;;;;;27.41;31.33;95910.81;6148499;28;19926;-72
2023/08/08 08:46:50;;;;;;;;;;;;;;;26.95;32.51;95917.56;6149271;28;20396;-75
2023/08/08 08:49:55;;;;;;;;;;;;;;;26.10;34.10;95916.34;6151025;29;19933;-72
2023/08/08 08:52:59;;;;;;;;;;;;;;;25.57;35.26;95942.81;6150796;28;19926;-73
2023/08/08 08:56:00;;;;;;;;;;;;;;;25.17;35.96;95948.41;6150922;28;20420;-74
2023/08/08 08:59:04;;;;;;;;;;;;;;;24.96;36.50;95936.81;6150880;28;20428;-72
2023/08/08 09:02:08;;;;;;;;;;;;;;;25.31;36.83;95936.53;6149779;28;19930;-73
2023/08/08 09:05:11;;;;;;;;;;;;;;;25.72;35.85;95925.28;6150039;28;19926;-73
2023/08/08 09:08:12;;;;;;;;;;;;;;;26.38;34.89;95923.97;6150620;28;19969;-73
2023/08/08 09:11:18;;;;;;;;;;;;;;;27.33;33.67;95919.22;6149575;28;20393;-73
2023/08/08 09:14:20;;;;;;;;;;;;;;;28.70;31.39;95919.16;6150332;29;20439;-73
2023/08/08 09:17:27;;;;;;;;;;;;;;;30.91;29.01;95916.66;6150064;28;20021;-72
2023/08/08 09:20:32;;;;;;;;;;;;;;;34.35;25.08;95929.72;6150011;28;19927;-73
2023/08/08 09:35:55;;;;;;;7.10;2.60;;;;;;;41.13;18.89;95926.72;6443928;27;21210;-65
2023/08/08 09:38:59;;;;;;;3.25;1.83;;;;;;;42.82;17.22;95937.00;6443335;27;20528;-66
2023/08/08 09:42:05;;;;;;;3.65;1.73;;;;;;;44.13;16.08;95931.63;6442323;27;20042;-66
2023/08/08 09:45:11;;;;;;;6.40;2.25;;;;;;;44.55;15.54;95925.25;6425882;27;20045;-66
2023/08/08 09:48:19;;;;;;;2.22;1.27;;;;;;;44.55;15.24;95934.38;6443379;27;20038;-67
2023/08/08 09:51:24;;;;;;;2.78;1.58;;;;;;;44.03;15.72;95926.50;6443078;27;20091;-67
2023/08/08 09:54:28;;;;;;;4.93;1.20;;;;;;;42.73;16.00;95933.44;6443234;27;20099;-67
2023/08/08 09:57:32;;;;;;;2.95;1.33;;;;;;;42.14;16.49;95916.56;6443064;27;20044;-67
2023/08/08 10:00:36;;;;;;;4.38;1.40;;;;;;;42.61;16.41;95911.16;6442964;27;20407;-66
2023/08/08 10:03:44;;;;;;;4.72;1.45;;;;;;;43.28;15.26;95904.94;6443213;27;20443;-66
2023/08/08 10:06:48;;;;;;;3.33;1.17;;;;;;;43.32;15.37;95907.06;6442893;27;20045;-67
2023/08/08 10:09:49;;;;;;;2.08;1.30;;;;;;;43.58;15.49;95902.19;6442937;27;20045;-67
2023/08/08 10:12:57;;;;;;;3.88;1.92;;;;;;;42.72;15.64;95912.44;6442539;27;20091;-67
2023/08/08 10:16:08;;;;;;;4.57;1.55;;;;;;;43.42;15.84;95912.19;6442742;27;20038;-67
2023/08/08 10:19:21;;;;;;;3.25;1.63;;;;;;;44.20;14.92;95908.13;6442927;27;20042;-66
2023/08/08 10:22:24;;;;;;;4.18;2.10;;;;;;;44.69;14.65;95924.94;6442687;27;20022;-68
2023/08/08 10:25:27;;;;;;;3.28;1.58;;;;;;;44.27;15.14;95922.22;6442543;27;20091;-67
2023/08/08 10:28:36;;;;;;;2.33;1.58;;;;;;;43.69;15.71;95931.13;6442681;27;20083;-67
2023/08/08 10:31:38;;;;;;;3.97;1.88;;;;;;;44.05;15.37;95924.22;6442382;27;20079;-67
2023/08/08 10:34:47;;;;;;;3.08;1.50;;;;;;;44.27;15.16;95933.31;6436649;27;20410;-66
2023/08/08 10:37:54;;;;;;;3.70;1.50;;;;;;;43.70;15.52;95941.06;6424676;27;20484;-67
2023/08/08 10:41:03;;;;;;;2.40;0.80;;;;;;;42.83;16.04;95941.41;6424441;27;20171;-66
2023/08/08 10:44:09;;;;;;;2.35;0.98;;;;;;;41.93;16.70;95942.09;6424558;27;20038;-67
2023/08/08 10:47:16;;;;;;;3.45;1.08;;;;;;;41.87;16.62;95948.88;6424333;27;20038;-67
2023/08/08 10:50:22;;;;;;;2.80;1.10;;;;;;;41.99;16.74;95944.69;6424585;27;20075;-67
2023/08/08 10:53:29;;;;;;;1.23;1.00;;;;;;;41.27;17.12;95930.97;6424487;27;20046;-67
2023/08/08 10:56:36;;;;;;;2.10;0.85;;;;;;;40.53;17.58;95931.53;6424388;27;20474;-67
2023/08/08 10:59:40;;;;;;;2.78;1.80;;;;;;;40.47;18.11;95935.56;6423888;27;20050;-67
2023/08/08 11:02:41;;;;;;;2.45;1.42;;;;;;;41.38;17.74;95931.50;6423896;27;20036;-68
2023/08/08 11:05:49;;;;;;;5.00;1.58;;;;;;;40.64;17.62;95923.84;6423180;27;20038;-65
2023/08/08 11:08:56;;;;;;;3.55;1.50;;;;;;;39.41;18.65;95918.38;6422555;27;20065;-67
2023/08/08 11:12:01;;;;;;;4.05;1.80;;;;;;;38.01;19.65;95920.25;6422313;27;20046;-67
2023/08/08 11:15:06;;;;;;;3.65;2.22;;;;;;;37.99;20.30;95918.94;6422847;27;20050;-67
2023/08/08 11:18:12;;;;;;;2.70;1.95;;;;;;;38.06;20.31;95922.13;6421583;27;20058;-67
2023/08/08 11:21:15;;;;;;;3.83;1.63;;;;;;;36.67;21.33;95922.16;6422073;27;20075;-66
2023/08/08 11:24:22;;;;;;;2.45;1.27;;;;;;;36.36;21.96;95916.91;6422905;27;20125;-68
2023/08/08 11:27:28;;;;;;;3.90;1.52;;;;;;;37.38;21.13;95931.53;6422897;27;20487;-67
2023/08/08 11:30:38;;;;;;;4.68;1.98;;;;;;;38.19;20.19;95929.63;6422680;27;20062;-67
2023/08/08 11:33:40;;;;;;;4.95;2.60;;;;;;;38.57;19.82;95921.31;6422913;27;20396;-67
2023/08/08 11:36:44;;;;;;;3.00;1.93;;;;;;;38.43;20.40;95928.72;6422724;27;20042;-67
2023/08/08 11:39:46;;;;;;;6.10;1.90;;;;;;;38.10;20.37;95936.88;6422411;27;20452;-67
2023/08/08 11:42:51;;;;;;;5.05;2.05;;;;;;;38.03;20.43;95933.72;6421742;27;20565;-67
2023/08/08 11:45:53;;;;;;;4.22;1.75;;;;;;;38.40;20.15;95919.94;6422157;27;20464;-67
2023/08/08 11:49:04;;;;;;;3.30;1.50;;;;;;;38.78;20.33;95914.31;6422471;27;20042;-67
2023/08/08 11:52:08;;;;;;;4.05;1.60;;;;;;;38.72;20.47;95921.03;6422908;27;20044;-66
2023/08/08 11:55:13;;;;;;;1.67;1.10;;;;;;;37.98;21.37;95923.59;6422801;27;20042;-66
2023/08/08 11:58:16;;;;;;;4.43;1.30;;;;;;;36.75;22.16;95925.06;6421841;27;20087;-66
2023/08/08 12:01:30;;;;;;;1.98;1.10;;;;;;;35.60;23.49;95915.50;6421291;27;20431;-67
2023/08/08 12:04:38;;;;;;;3.47;1.58;;;;;;;35.40;23.65;95921.88;6422515;27;20039;-67
2023/08/08 12:07:41;;;;;;;3.20;1.60;;;;;;;35.30;23.82;95918.09;6422372;27;20411;-68
2023/08/08 12:10:53;;;;;;;2.70;1.25;;;;;;;34.96;24.50;95928.00;6422156;27;20038;-67
2023/08/08 12:13:59;;;;;;;4.35;2.17;;;;;;;35.22;24.28;95937.81;6402507;27;20056;-67
2023/08/08 12:17:04;;;;;;;3.10;1.65;;;;;;;35.28;25.43;95933.94;6421950;27;20042;-67
2023/08/08 12:20:12;;;;;;;2.40;1.30;;;;;;;35.33;26.18;95937.75;6422217;27;20459;-67
2023/08/08 12:23:18;;;;;;;2.97;1.10;;;;;;;35.84;26.65;95935.63;6422123;27;20042;-66
2023/08/08 12:26:22;;;;;;;2.50;1.20;;;;;;;35.82;26.24;95937.00;6421598;27;20527;-66
2023/08/08 12:29:31;;;;;;;1.98;1.20;;;;;;;34.76;27.79;95934.34;6421721;27;20045;-67
2023/08/08 12:32:34;;;;;;;1.33;1.20;;;;;;;33.25;29.98;95943.63;6420247;27;20473;-67
2023/08/08 12:35:39;;;;;;;1.70;1.30;;;;;;;32.19;31.27;95940.72;6421604;27;20522;-67
2023/08/08 12:38:43;;;;;;;1.52;1.30;;;;;;;31.77;32.40;95941.38;6420650;27;20050;-67
2023/08/08 12:41:51;;;;;;;2.58;1.20;;;;;;;31.94;32.31;95940.47;6421586;27;20049;-67
2023/08/08 12:44:59;;;;;;;1.67;1.10;;;;;;;32.61;31.48;95937.25;6421563;27;20050;-66
2023/08/08 12:48:03;;;;;;;6.18;4.75;;;;;;;33.27;29.83;95957.81;6421790;27;20505;-67
2023/08/08 12:51:08;;;;;;;2.67;2.30;;;;;;;33.70;29.20;95958.53;6421375;27;20515;-68
2023/08/08 12:54:13;;;;;;;1.98;1.35;;;;;;;33.64;29.22;95956.88;6421328;27;20042;-67
2023/08/08 12:57:14;;;;;;;;;;;;;;;33.54;28.95;95963.13;6420915;27;20046;-67
2023/08/08 13:00:16;;;;;;;1.70;1.00;;;;;;;32.74;30.27;95956.94;6419834;27;19915;-67
2023/08/08 13:03:21;;;;;;;1.45;1.13;;;;;;;32.36;30.98;95965.06;6421093;27;20053;-67
2023/08/08 13:06:22;;;;;;;;;;;;;;;32.22;31.00;95957.59;6421465;27;20198;-67
2023/08/08 13:09:28;;;;;;;1.70;1.20;;;;;;;31.69;31.39;95954.59;6420752;27;19918;-67
2023/08/08 13:12:32;;;;;;;1.88;1.55;;;;;;;31.23;31.93;95954.88;6420919;27;20034;-71
2023/08/08 13:15:35;;;;;;;2.38;1.38;;;;;;;30.75;33.10;95945.50;6420733;27;20049;-67
2023/08/08 13:18:39;;;;;;;5.75;1.48;;;;;;;30.42;33.23;95939.03;6420719;27;20042;-68
2023/08/08 13:21:47;;;;;;;1.92;1.27;;;;;;;30.11;34.09;95939.56;6420884;27;20129;-66
2023/08/08 13:24:53;;;;;;;6.15;1.70;;;;;;;30.11;33.69;95951.25;6419648;27;20141;-67
2023/08/08 13:28:02;;;;;;;3.35;1.67;;;;;;;30.09;33.52;95941.69;6420967;27;20141;-66
2023/08/08 13:31:07;;;;;;;5.45;1.77;;;;;;;30.03;33.63;95942.69;6420719;27;20042;-66
2023/08/08 13:34:09;;;;;;;3.13;1.67;;;;;;;29.67;34.02;95948.31;6419321;27;20524;-67
2023/08/08 13:37:16;;;;;;;4.28;1.75;;;;;;;29.26;34.68;95935.81;6420285;27;20511;-66
2023/08/08 13:40:20;;;;;;;3.13;1.92;;;;;;;29.08;35.05;95940.34;6420142;27;20061;-66
2023/08/08 13:43:27;;;;;;;3.75;1.70;;;;;;;29.02;35.11;95943.97;6421562;27;20042;-67
2023/08/08 13:46:31;;;;;;;2.05;1.52;;;;;;;28.92;35.34;95941.03;6420480;27;20046;-67
2023/08/08 13:49:35;;;;;;;4.95;3.35;;;;;;;28.76;35.72;95936.34;6420719;27;20046;-66
2023/08/08 13:52:37;;;;;;;3.10;2.08;;;;;;;28.53;36.43;95935.28;6419800;27;20056;-67
2023/08/08 13:55:39;;;;;;;3.55;1.90;;;;;;;28.40;36.64;95935.50;6418568;27;20046;-67
2023/08/08 13:58:43;;;;;;;;;;;;;;;28.39;35.83;95952.78;6420966;27;20091;-66
2023/08/08 14:01:44;;;;;;;6.53;2.13;;;;;;;28.20;36.65;95958.31;6419573;27;19919;-67
2023/08/08 14:04:49;;;;;;;4.07;2.33;;;;;;;28.04;36.90;95961.69;6420366;27;20038;-67
2023/08/08 14:07:50;;;;;;;5.65;2.13;;;;;;;27.88;37.49;95960.44;6419517;27;20558;-66
2023/08/08 14:10:57;;;;;;;5.63;2.28;;;;;;;27.80;37.29;95968.06;6423128;27;20423;-66
2023/08/08 14:14:01;;;;;;;4.32;2.20;;;;;;;27.72;37.81;95988.13;6424477;27;20082;-66
2023/08/08 14:17:08;;;;;;;9.05;2.08;;;;;;;27.29;35.70;95995.31;6425192;27;20041;-67
2023/08/08 14:20:12;;;;;;;3.25;1.45;;;;;;;26.32;35.75;96000.34;6425097;27;20049;-66
2023/08/08 14:23:19;;;;;;;7.80;2.10;;;;;;;25.47;36.96;96018.66;6406870;27;20034;-66
2023/08/08 14:26:22;;;;;;;6.22;2.10;;;;;;;24.83;37.95;96017.59;6425109;27;20038;-66
2023/08/08 14:29:26;;;;;;;7.30;2.33;;;;;;;24.28;39.50;96008.91;6425280;27;20042;-67
2023/08/08 14:32:28;;;;;;;6.65;2.38;;;;;;;23.87;40.56;96017.97;6424192;27;20057;-66
2023/08/08 14:35:32;;;;;;;5.30;1.83;;;;;;;23.44;40.63;96028.94;6423401;27;20519;-66
2023/08/08 14:38:36;;;;;;;3.45;1.50;;;;;;;22.94;41.52;96025.59;6424001;27;20043;-67
2023/08/08 14:41:40;;;;;;;7.80;2.67;;;;;;;22.55;42.82;96030.47;6423831;27;20438;-67
2023/08/08 14:44:44;;;;;;;7.75;3.25;;;;;;;22.18;43.59;96016.38;6424690;27;20050;-66
2023/08/08 14:47:47;;;;;;;6.10;2.58;;;;;;;22.02;43.97;95997.03;6424392;27;20559;-65
2023/08/08 14:50:51;;;;;;;5.43;2.78;;;;;;;21.99;44.50;96003.59;6423908;27;20423;-65
2023/08/08 14:53:52;;;;;;;7.80;2.30;;;;;;;21.95;44.70;96016.53;6424163;27;20038;-67
2023/08/08 14:57:00;;;;;;;5.35;2.70;;;;;;;21.81;45.26;96009.41;6424396;27;20434;-66
2023/08/08 15:00:02;;;;;;;7.00;3.47;;;;;;;21.69;46.03;96010.94;6423418;27;20087;-64
2023/08/08 15:03:08;;;;;;;8.07;3.60;;;;;;;21.69;46.04;96008.25;6424382;27;20038;-66
2023/08/08 15:06:10;;;;;;;7.03;3.70;;;;;;;21.73;46.31;95998.81;6422858;27;20546;-66
2023/08/08 15:09:13;;;;;;;6.38;3.80;;;;;;;21.69;46.97;96005.59;6424172;27;20415;-66
2023/08/08 15:12:22;;;;;;;11.18;4.28;;;;;;;21.80;47.13;96005.06;6424037;27;20461;-66
2023/08/08 15:15:25;;;;;;;7.85;5.50;;;;;;;21.91;47.01;96001.91;6423703;27;20046;-66
2023/08/08 15:18:29;;;;;;;10.57;6.10;;;;;;;21.91;47.17;96011.75;6423847;27;20419;-66
2023/08/08 15:21:35;;;;;;;13.73;5.43;;;;;;;21.73;47.60;96009.53;6422668;27;20084;-66
2023/08/08 15:24:38;;;;;;;7.63;4.68;;;;;;;21.50;48.42;96013.19;6422691;27;20423;-67
2023/08/08 15:27:41;;;;;;;7.97;4.95;;;;;;;21.26;48.67;96013.50;6422711;27;20045;-66
2023/08/08 15:30:47;;;;;;;10.93;5.38;;;;;;;21.14;49.33;96020.34;6422800;27;20050;-66